createdAt,value
2023-05-08T00:00:06.637Z,3.20
2023-05-08T00:02:35.132Z,3.10
2023-05-08T00:05:03.621Z,3.90
2023-05-08T00:07:33.468Z,3.50
2023-05-08T00:10:02.053Z,3.00
2023-05-08T00:12:30.443Z,3.20
2023-05-08T00:14:58.819Z,3.40
2023-05-08T00:17:27.364Z,3.03
2023-05-08T00:19:55.802Z,3.43
2023-05-08T00:22:24.321Z,3.30
2023-05-08T00:24:54.141Z,2.90
2023-05-08T00:27:22.483Z,2.80
2023-05-08T00:29:50.990Z,3.10
2023-05-08T00:32:19.483Z,3.00
2023-05-08T00:34:48.033Z,3.10
2023-05-08T00:37:16.460Z,2.80
2023-05-08T00:39:44.955Z,3.10
2023-05-08T00:42:14.679Z,2.67
2023-05-08T00:44:43.135Z,2.73
2023-05-08T00:47:11.637Z,2.80
2023-05-08T00:49:40.302Z,2.70
2023-05-08T00:52:09.120Z,2.93
2023-05-08T00:54:37.838Z,3.40
2023-05-08T00:57:08.730Z,2.80
2023-05-08T00:59:38.852Z,2.50
2023-05-08T01:02:07.731Z,2.80
2023-05-08T01:04:36.774Z,1.97
2023-05-08T01:07:05.445Z,2.57
2023-05-08T01:09:33.908Z,2.10
2023-05-08T01:12:09.245Z,2.07
2023-05-08T01:14:42.790Z,2.57
2023-05-08T01:17:12.444Z,2.00
2023-05-08T01:19:58.749Z,2.30
2023-05-08T01:22:37.854Z,2.20
2023-05-08T01:25:13.716Z,2.00
2023-05-08T01:27:59.831Z,2.07
2023-05-08T01:30:50.559Z,2.60
2023-05-08T01:33:22.975Z,2.37
2023-05-08T01:35:53.351Z,2.20
2023-05-08T01:38:24.656Z,1.90
2023-05-08T01:40:54.716Z,2.20
2023-05-08T01:43:27.161Z,1.93
2023-05-08T01:45:56.658Z,1.90
2023-05-08T01:48:27.847Z,1.93
2023-05-08T01:50:58.436Z,1.93
2023-05-08T01:53:29.589Z,2.30
2023-05-08T01:55:59.940Z,1.97
2023-05-08T01:58:29.310Z,2.20
2023-05-08T02:00:58.573Z,2.00
2023-05-08T02:03:29.136Z,2.20
2023-05-08T02:05:58.186Z,1.80
2023-05-08T02:08:27.536Z,1.90
2023-05-08T02:10:57.173Z,1.90
2023-05-08T02:13:26.566Z,2.20
2023-05-08T02:15:55.912Z,1.97
2023-05-08T02:18:25.649Z,1.83
2023-05-08T02:20:56.476Z,1.73
2023-05-08T02:23:26.602Z,2.00
2023-05-08T02:25:56.016Z,1.67
2023-05-08T02:28:25.550Z,1.90
2023-05-08T02:30:54.694Z,1.80
2023-05-08T02:33:23.348Z,2.00
2023-05-08T02:35:52.634Z,1.63
2023-05-08T02:38:23.695Z,1.90
2023-05-08T02:40:54.932Z,1.60
2023-05-08T02:43:23.996Z,2.70
2023-05-08T02:45:57.118Z,1.70
2023-05-08T02:48:28.351Z,1.70
2023-05-08T02:50:59.270Z,1.70
2023-05-08T02:53:34.676Z,1.70
2023-05-08T02:56:05.281Z,1.70
2023-05-08T02:58:37.180Z,1.77
2023-05-08T03:01:07.677Z,1.97
2023-05-08T03:03:40.019Z,1.93
2023-05-08T03:06:10.306Z,1.80
2023-05-08T03:08:40.047Z,1.60
2023-05-08T03:11:11.001Z,1.67
2023-05-08T03:13:40.720Z,1.47
2023-05-08T03:16:13.253Z,1.67
2023-05-08T03:18:44.405Z,1.80
2023-05-08T03:21:13.803Z,1.80
2023-05-08T03:23:44.347Z,1.90
2023-05-08T03:26:13.388Z,1.60
2023-05-08T03:28:42.142Z,1.80
2023-05-08T03:31:12.723Z,1.73
2023-05-08T03:33:42.584Z,1.60
2023-05-08T03:36:11.315Z,2.10
2023-05-08T03:38:39.994Z,2.03
2023-05-08T03:41:09.848Z,1.90
2023-05-08T03:43:38.661Z,1.50
2023-05-08T03:46:07.853Z,1.83
2023-05-08T03:48:36.762Z,2.37
2023-05-08T03:51:05.584Z,2.97
2023-05-08T03:53:34.538Z,2.97
2023-05-08T03:56:03.887Z,2.27
2023-05-08T03:58:39.076Z,1.83
2023-05-08T04:01:09.842Z,2.10
2023-05-08T04:04:00.907Z,2.13
2023-05-08T04:06:42.005Z,2.47
2023-05-08T04:09:16.240Z,1.80
2023-05-08T04:11:46.264Z,2.00
2023-05-08T04:14:18.625Z,2.17
2023-05-08T04:16:50.676Z,1.97
2023-05-08T04:19:21.669Z,2.07
2023-05-08T04:21:52.005Z,2.23
2023-05-08T04:24:21.536Z,2.13
2023-05-08T04:26:50.473Z,2.37
2023-05-08T04:29:20.536Z,2.63
2023-05-08T04:31:50.857Z,2.43
2023-05-08T04:34:19.621Z,2.70
2023-05-08T04:36:48.654Z,2.60
2023-05-08T04:39:17.068Z,2.60
2023-05-08T04:41:45.529Z,2.50
2023-05-08T04:44:14.279Z,2.70
2023-05-08T04:46:44.009Z,2.53
2023-05-08T04:49:12.468Z,3.87
2023-05-08T04:51:40.855Z,3.40
2023-05-08T04:54:09.270Z,2.83
2023-05-08T04:56:37.673Z,3.57
2023-05-08T04:59:06.707Z,3.00
2023-05-08T05:01:35.159Z,2.30
2023-05-08T05:04:05.043Z,1.83
2023-05-08T05:06:33.709Z,2.27
2023-05-08T05:09:02.151Z,1.90
2023-05-08T05:11:30.545Z,1.90
2023-05-08T05:13:58.906Z,1.80
2023-05-08T05:16:27.413Z,1.90
2023-05-08T05:18:55.902Z,2.20
2023-05-08T05:21:26.080Z,2.10
2023-05-08T05:23:54.420Z,1.90
2023-05-08T05:26:23.348Z,1.83
2023-05-08T05:28:51.791Z,1.90
2023-05-08T05:31:20.259Z,2.00
2023-05-08T05:33:48.679Z,2.07
2023-05-08T05:36:17.158Z,2.00
2023-05-08T05:38:47.020Z,2.23
2023-05-08T05:41:15.383Z,2.30
2023-05-08T05:43:43.884Z,1.90
2023-05-08T05:46:12.400Z,2.40
2023-05-08T05:48:40.776Z,2.70
2023-05-08T05:51:09.155Z,1.97
2023-05-08T05:53:37.599Z,2.13
2023-05-08T05:56:07.894Z,2.50
2023-05-08T05:58:36.263Z,2.47
2023-05-08T06:01:04.795Z,2.90
2023-05-08T06:03:33.460Z,2.90
2023-05-08T06:06:02.112Z,2.90
2023-05-08T06:08:30.530Z,3.70
2023-05-08T06:10:58.919Z,3.10
2023-05-08T06:13:28.764Z,3.67
2023-05-08T06:15:57.626Z,3.60
2023-05-08T06:18:26.109Z,3.83
2023-05-08T06:20:57.578Z,3.47
2023-05-08T06:23:26.163Z,3.47
2023-05-08T06:25:54.591Z,3.97
2023-05-08T06:28:25.915Z,4.10
2023-05-08T06:30:55.746Z,3.93
2023-05-08T06:33:26.804Z,3.90
2023-05-08T06:35:55.757Z,4.37
2023-05-08T06:38:24.220Z,4.60
2023-05-08T06:40:52.576Z,4.33
2023-05-08T06:43:21.063Z,4.03
2023-05-08T06:45:49.421Z,4.57
2023-05-08T06:48:19.185Z,4.33
2023-05-08T06:50:48.155Z,4.53
2023-05-08T06:53:16.635Z,4.13
2023-05-08T06:55:45.352Z,4.70
2023-05-08T06:58:13.761Z,4.60
2023-05-08T07:00:42.142Z,3.90
2023-05-08T07:03:10.608Z,4.30
2023-05-08T07:05:40.363Z,3.60
2023-05-08T07:08:08.770Z,3.93
2023-05-08T07:10:37.168Z,4.83
2023-05-08T07:13:05.613Z,3.93
2023-05-08T07:15:34.108Z,4.77
2023-05-08T07:18:02.632Z,4.90
2023-05-08T07:20:31.211Z,4.97
2023-05-08T07:23:00.994Z,4.73
2023-05-08T07:25:29.380Z,5.27
2023-05-08T07:27:59.197Z,5.80
2023-05-08T07:30:29.549Z,6.00
2023-05-08T07:32:58.029Z,6.70
2023-05-08T07:35:26.494Z,6.47
2023-05-08T07:37:54.922Z,6.70
2023-05-08T07:40:24.696Z,6.47
2023-05-08T07:42:53.104Z,5.93
2023-05-08T07:45:21.606Z,6.57
2023-05-08T07:47:53.468Z,5.97
2023-05-08T07:50:22.253Z,6.33
2023-05-08T07:52:50.933Z,6.07
2023-05-08T07:55:19.711Z,6.70
2023-05-08T07:57:49.552Z,6.00
2023-05-08T08:00:18.375Z,6.60
2023-05-08T08:02:47.095Z,6.23
2023-05-08T08:05:15.978Z,5.53
2023-05-08T08:07:44.532Z,6.80
2023-05-08T08:10:12.977Z,6.37
2023-05-08T08:12:41.550Z,7.20
2023-05-08T08:15:11.926Z,7.17
2023-05-08T08:17:40.462Z,6.93
2023-05-08T08:20:09.433Z,6.13
2023-05-08T08:22:39.218Z,6.53
2023-05-08T08:25:08.030Z,5.93
2023-05-08T08:27:36.573Z,6.40
2023-05-08T08:30:15.915Z,5.67
2023-05-08T08:32:47.924Z,5.40
2023-05-08T08:35:16.787Z,5.80
2023-05-08T08:37:45.761Z,5.50
2023-05-08T08:40:14.361Z,5.40
2023-05-08T08:42:42.806Z,4.90
2023-05-08T08:45:12.891Z,4.73
2023-05-08T08:47:42.529Z,4.40
2023-05-08T08:50:14.643Z,4.53
2023-05-08T08:52:47.398Z,3.93
2023-05-08T08:55:17.576Z,3.63
2023-05-08T08:57:50.715Z,3.80
2023-05-08T09:00:19.757Z,3.60
2023-05-08T09:02:48.249Z,3.70
2023-05-08T09:05:18.270Z,3.57
2023-05-08T09:07:46.641Z,3.50
2023-05-08T09:10:15.857Z,3.77
2023-05-08T09:12:45.198Z,4.00
2023-05-08T09:15:14.022Z,4.10
2023-05-08T09:17:42.699Z,4.43
2023-05-08T09:20:12.099Z,4.07
2023-05-08T09:22:42.840Z,4.97
2023-05-08T09:25:12.059Z,4.93
2023-05-08T09:27:40.728Z,4.60
2023-05-08T09:30:10.205Z,5.03
2023-05-08T09:32:39.567Z,5.43
2023-05-08T09:35:08.846Z,5.30
2023-05-08T09:37:40.144Z,5.53
2023-05-08T09:40:16.538Z,5.40
2023-05-08T09:42:45.094Z,6.43
2023-05-08T09:45:13.732Z,6.10
2023-05-08T09:47:49.703Z,5.50
2023-05-08T09:50:18.358Z,5.70
2023-05-08T09:52:48.473Z,4.50
2023-05-08T09:55:18.402Z,4.50
2023-05-08T09:57:57.172Z,4.83
2023-05-08T10:00:25.963Z,4.50
2023-05-08T10:02:58.436Z,3.97
2023-05-08T10:05:27.772Z,3.43
2023-05-08T10:07:56.308Z,3.40
2023-05-08T10:10:27.730Z,3.20
2023-05-08T10:12:56.829Z,3.40
2023-05-08T10:15:26.551Z,3.30
2023-05-08T10:17:57.017Z,2.80
2023-05-08T10:20:27.374Z,3.17
2023-05-08T10:22:57.272Z,2.00
2023-05-08T10:25:27.436Z,2.73
2023-05-08T10:27:58.456Z,2.97
2023-05-08T10:30:27.576Z,2.90
2023-05-08T10:32:56.255Z,2.87
2023-05-08T10:35:24.897Z,2.47
2023-05-08T10:37:54.054Z,3.17
2023-05-08T10:40:22.496Z,2.87
2023-05-08T10:42:52.621Z,2.87
2023-05-08T10:45:21.031Z,3.13
2023-05-08T10:47:57.386Z,3.43
2023-05-08T10:50:33.211Z,2.77
2023-05-08T10:53:04.518Z,3.50
2023-05-08T10:55:33.694Z,3.50
2023-05-08T10:58:11.556Z,3.10
2023-05-08T11:01:00.612Z,3.90
2023-05-08T11:03:32.493Z,4.10
2023-05-08T11:06:02.899Z,4.27
2023-05-08T11:08:32.622Z,3.70
2023-05-08T11:11:06.930Z,4.37
2023-05-08T11:13:37.943Z,4.60
2023-05-08T11:16:08.111Z,4.80
2023-05-08T11:18:48.437Z,4.63
2023-05-08T11:21:22.054Z,4.13
2023-05-08T11:23:58.287Z,4.67
2023-05-08T11:26:40.608Z,5.03
2023-05-08T11:29:19.196Z,5.00
2023-05-08T11:31:54.334Z,5.03
2023-05-08T11:34:41.369Z,4.50
2023-05-08T11:37:10.842Z,4.20
2023-05-08T11:39:39.234Z,3.40
2023-05-08T11:42:25.549Z,3.50
2023-05-08T11:45:02.927Z,3.27
2023-05-08T11:47:34.367Z,3.43
2023-05-08T11:50:02.761Z,3.17
2023-05-08T11:52:33.309Z,2.97
2023-05-08T11:55:03.511Z,2.30
2023-05-08T11:57:33.390Z,2.53
2023-05-08T12:00:07.102Z,2.83
2023-05-08T12:02:39.375Z,2.93
2023-05-08T12:05:08.336Z,2.90
2023-05-08T12:07:45.338Z,3.00
2023-05-08T12:10:14.430Z,3.50
2023-05-08T12:12:44.660Z,2.80
2023-05-08T12:15:15.600Z,2.90
2023-05-08T12:17:44.729Z,2.97
2023-05-08T12:20:14.345Z,3.83
2023-05-08T12:22:43.347Z,4.17
2023-05-08T12:25:13.165Z,3.30
2023-05-08T12:27:41.734Z,3.50
2023-05-08T12:30:11.028Z,3.23
2023-05-08T12:32:42.192Z,3.40
2023-05-08T12:35:11.455Z,4.20
2023-05-08T12:37:39.989Z,4.40
2023-05-08T12:40:09.288Z,4.60
2023-05-08T12:42:43.851Z,3.23
2023-05-08T12:45:18.576Z,3.70
2023-05-08T12:47:49.293Z,3.63
2023-05-08T12:50:17.902Z,4.07
2023-05-08T12:52:46.274Z,3.30
2023-05-08T12:55:24.776Z,2.80
2023-05-08T12:58:01.328Z,3.07
2023-05-08T13:00:37.265Z,3.30
2023-05-08T13:03:07.721Z,3.20
2023-05-08T13:05:36.725Z,3.40
2023-05-08T13:08:05.953Z,3.90
2023-05-08T13:10:47.147Z,3.47
2023-05-08T13:13:15.724Z,3.33
2023-05-08T13:15:44.485Z,3.80
2023-05-08T13:18:14.644Z,3.40
2023-05-08T13:20:43.327Z,3.60
2023-05-08T13:23:12.142Z,3.70
2023-05-08T13:25:41.001Z,4.00
2023-05-08T13:28:10.072Z,3.63
2023-05-08T13:30:38.765Z,4.53
2023-05-08T13:33:07.934Z,4.07
2023-05-08T13:35:37.882Z,3.90
2023-05-08T13:38:06.365Z,3.90
2023-05-08T13:40:34.927Z,3.30
2023-05-08T13:43:03.271Z,3.23
2023-05-08T13:45:33.029Z,3.70
2023-05-08T13:48:01.674Z,4.97
2023-05-08T13:50:30.088Z,4.47
2023-05-08T13:52:59.886Z,4.63
2023-05-08T13:55:28.327Z,3.43
2023-05-08T13:57:56.745Z,3.20
2023-05-08T14:00:27.296Z,4.47
2023-05-08T14:02:56.531Z,4.37
2023-05-08T14:05:25.025Z,4.13
2023-05-08T14:07:53.433Z,5.07
2023-05-08T14:10:23.241Z,4.77
2023-05-08T14:12:51.626Z,3.70
2023-05-08T14:15:20.101Z,3.77
2023-05-08T14:17:48.635Z,3.97
2023-05-08T14:20:17.150Z,3.70
2023-05-08T14:22:46.260Z,3.10
2023-05-08T14:25:15.862Z,3.33
2023-05-08T14:27:45.747Z,3.17
2023-05-08T14:30:15.338Z,3.07
2023-05-08T14:32:43.833Z,3.10
2023-05-08T14:35:14.423Z,3.23
2023-05-08T14:37:43.030Z,3.93
2023-05-08T14:40:11.550Z,3.40
2023-05-08T14:42:39.952Z,3.00
2023-05-08T14:45:10.738Z,2.97
2023-05-08T14:47:39.674Z,3.30
2023-05-08T14:50:08.566Z,3.37
2023-05-08T14:52:37.071Z,3.53
2023-05-08T14:55:05.696Z,3.77
2023-05-08T14:57:34.231Z,5.07
2023-05-08T15:00:02.603Z,7.30
2023-05-08T15:02:32.498Z,6.50
2023-05-08T15:05:01.048Z,6.30
2023-05-08T15:07:29.587Z,6.43
2023-05-08T15:09:58.063Z,6.90
2023-05-08T15:12:26.421Z,6.37
2023-05-08T15:14:54.943Z,6.10
2023-05-08T15:17:23.459Z,6.63
2023-05-08T15:19:53.323Z,5.93
2023-05-08T15:22:21.740Z,6.50
2023-05-08T15:24:50.148Z,5.40
2023-05-08T15:27:18.536Z,5.90
2023-05-08T15:29:47.884Z,4.87
2023-05-08T15:32:16.306Z,4.07
2023-05-08T15:34:44.765Z,3.80
2023-05-08T15:37:14.541Z,3.40
2023-05-08T15:39:43.283Z,3.60
2023-05-08T15:42:11.748Z,3.23
2023-05-08T15:47:11.498Z,3.10
2023-05-08T15:49:39.954Z,3.37
2023-05-08T15:52:08.399Z,3.13
2023-05-08T15:54:38.738Z,7.43
2023-05-08T15:57:07.111Z,7.60
2023-05-08T15:59:37.583Z,7.63
2023-05-08T16:02:05.948Z,8.70
2023-05-08T16:04:34.369Z,7.13
2023-05-08T16:07:02.771Z,7.77
2023-05-08T16:09:31.198Z,7.53
2023-05-08T16:12:01.155Z,6.83
2023-05-08T16:14:29.585Z,7.27
2023-05-08T16:16:58.004Z,6.77
2023-05-08T16:19:26.378Z,6.80
2023-05-08T16:21:54.838Z,6.57
2023-05-08T16:24:23.208Z,6.30
2023-05-08T16:26:51.708Z,6.03
2023-05-08T16:29:21.493Z,5.90
2023-05-08T16:31:49.943Z,5.33
2023-05-08T16:34:18.548Z,6.40
2023-05-08T16:36:46.928Z,6.93
2023-05-08T16:39:15.345Z,7.17
2023-05-08T16:41:43.792Z,7.10
2023-05-08T16:44:12.600Z,6.40
2023-05-08T16:46:42.424Z,6.67
2023-05-08T16:49:10.887Z,6.83
2023-05-08T16:51:39.293Z,6.27
2023-05-08T16:54:07.680Z,5.80
2023-05-08T16:56:36.292Z,6.77
2023-05-08T16:59:06.519Z,7.23
2023-05-08T17:01:35.247Z,7.27
2023-05-08T17:04:05.068Z,7.37
2023-05-08T17:06:33.858Z,7.27
2023-05-08T17:09:02.226Z,7.67
2023-05-08T17:11:30.586Z,7.50
2023-05-08T17:13:58.999Z,8.00
2023-05-08T17:16:27.499Z,7.77
2023-05-08T17:18:55.962Z,8.17
2023-05-08T17:21:25.718Z,8.50
2023-05-08T17:23:54.110Z,7.63
2023-05-08T17:26:22.992Z,7.57
2023-05-08T17:28:51.416Z,7.37
2023-05-08T17:31:19.777Z,7.77
2023-05-08T17:33:48.143Z,7.50
2023-05-08T17:36:16.522Z,7.43
2023-05-08T17:38:47.398Z,7.43
2023-05-08T17:41:15.903Z,6.90
2023-05-08T17:43:44.290Z,6.77
2023-05-08T17:46:12.730Z,6.43
2023-05-08T17:48:41.186Z,6.27
2023-05-08T17:51:13.139Z,6.63
2023-05-08T17:53:41.611Z,6.33
2023-05-08T17:56:11.739Z,5.83
2023-05-08T17:58:40.131Z,5.93
2023-05-08T18:01:08.594Z,6.07
2023-05-08T18:03:37.090Z,6.40
2023-05-08T18:06:05.673Z,31.33
2023-05-08T18:08:35.454Z,11.73
2023-05-08T18:11:03.855Z,6.83
2023-05-08T18:13:34.803Z,6.57
2023-05-08T18:16:03.237Z,7.13
2023-05-08T18:18:31.732Z,6.90
2023-05-08T18:21:00.139Z,7.47
2023-05-08T18:23:28.525Z,6.27
2023-05-08T18:25:56.892Z,7.07
2023-05-08T18:28:25.289Z,7.40
2023-05-08T18:30:55.468Z,28.07
2023-05-08T18:33:24.015Z,7.63
2023-05-08T18:35:52.600Z,6.90
2023-05-08T18:38:21.058Z,6.93
2023-05-08T18:40:49.614Z,6.60
2023-05-08T18:43:18.020Z,6.93
2023-05-08T18:45:46.410Z,6.90
2023-05-08T18:48:16.184Z,7.37
2023-05-08T18:50:44.547Z,7.23
2023-05-08T18:53:14.605Z,7.30
2023-05-08T18:55:43.019Z,6.67
2023-05-08T18:58:11.406Z,7.70
2023-05-08T19:00:39.963Z,7.70
2023-05-08T19:03:08.452Z,7.70
2023-05-08T19:05:38.327Z,8.30
2023-05-08T19:08:06.886Z,8.30
2023-05-08T19:10:35.587Z,8.33
2023-05-08T19:13:04.010Z,8.07
2023-05-08T19:15:32.475Z,8.33
2023-05-08T19:18:00.918Z,8.67
2023-05-08T19:20:29.431Z,8.07
2023-05-08T19:22:59.287Z,9.13
2023-05-08T19:25:27.828Z,8.13
2023-05-08T19:27:57.318Z,9.63
2023-05-08T19:30:25.730Z,8.67
2023-05-08T19:32:54.141Z,18.60
2023-05-08T19:35:22.541Z,10.07
2023-05-08T19:37:50.926Z,10.37
2023-05-08T19:40:20.789Z,10.27
2023-05-08T19:42:49.119Z,9.43
2023-05-08T19:45:17.567Z,9.90
2023-05-08T19:47:49.250Z,8.37
2023-05-08T19:50:18.885Z,8.93
2023-05-08T19:52:48.557Z,9.17
2023-05-08T19:55:17.044Z,9.33
2023-05-08T19:57:46.843Z,9.23
2023-05-08T20:00:15.581Z,9.67
2023-05-08T20:02:44.165Z,10.27
2023-05-08T20:07:43.805Z,10.40
2023-05-08T20:10:12.734Z,10.43
2023-05-08T20:12:41.323Z,10.30
2023-05-08T20:15:12.200Z,10.13
2023-05-08T20:17:40.770Z,10.27
2023-05-08T20:20:09.769Z,11.23
2023-05-08T20:22:38.842Z,10.50
2023-05-08T20:25:07.684Z,9.97
2023-05-08T20:27:36.080Z,9.87
2023-05-08T20:30:04.524Z,10.00
2023-05-08T20:32:34.415Z,34.43
2023-05-08T20:35:03.273Z,11.47
2023-05-08T20:37:31.694Z,10.40
2023-05-08T20:40:00.103Z,10.10
2023-05-08T20:42:28.495Z,10.20
2023-05-08T20:44:56.864Z,10.70
2023-05-08T20:47:25.277Z,10.23
2023-05-08T20:49:55.166Z,11.00
2023-05-08T20:52:23.606Z,10.53
2023-05-08T20:54:51.973Z,10.33
2023-05-08T20:57:20.358Z,10.47
2023-05-08T20:59:48.741Z,10.20
2023-05-08T21:02:17.175Z,9.67
2023-05-08T21:04:45.671Z,10.67
2023-05-08T21:07:15.536Z,10.73
2023-05-08T21:09:43.872Z,10.27
2023-05-08T21:12:12.265Z,10.53
2023-05-08T21:14:40.684Z,10.07
2023-05-08T21:17:09.105Z,10.27
2023-05-08T21:19:37.555Z,10.83
2023-05-08T21:22:07.478Z,9.93
2023-05-08T21:24:37.285Z,9.73
2023-05-08T21:27:05.707Z,10.20
2023-05-08T21:29:34.172Z,10.23
2023-05-08T21:32:02.609Z,10.80
2023-05-08T21:34:31.274Z,9.83
2023-05-08T21:36:59.695Z,10.00
2023-05-08T21:39:28.166Z,10.33
2023-05-08T21:41:57.956Z,10.23
2023-05-08T21:44:26.413Z,9.93
2023-05-08T21:46:54.843Z,9.70
2023-05-08T21:49:23.263Z,10.13
2023-05-08T21:51:53.026Z,9.90
2023-05-08T21:54:23.293Z,9.40
2023-05-08T21:56:51.964Z,9.67
2023-05-08T21:59:21.887Z,8.70
2023-05-08T22:01:50.247Z,8.53
2023-05-08T22:04:18.624Z,9.97
2023-05-08T22:06:47.040Z,8.83
2023-05-08T22:09:15.412Z,8.67
2023-05-08T22:11:43.790Z,9.07
2023-05-08T22:14:12.181Z,8.30
2023-05-08T22:16:42.499Z,8.40
2023-05-08T22:19:11.432Z,8.53
2023-05-08T22:21:39.814Z,8.97
2023-05-08T22:24:08.602Z,8.37
2023-05-08T22:26:36.983Z,8.13
2023-05-08T22:29:05.360Z,7.87
2023-05-08T22:31:33.811Z,8.87
2023-05-08T22:34:03.606Z,7.70
2023-05-08T22:36:32.655Z,8.00
2023-05-08T22:39:01.455Z,8.27
2023-05-08T22:41:31.182Z,7.83
2023-05-08T22:43:59.797Z,7.73
2023-05-08T22:46:28.380Z,8.60
2023-05-08T22:48:56.850Z,8.23
2023-05-08T22:51:27.737Z,7.90
2023-05-08T22:53:56.930Z,7.70
2023-05-08T22:56:25.622Z,8.83
2023-05-08T22:58:55.178Z,7.83
2023-05-08T23:01:23.659Z,7.90
2023-05-08T23:03:53.704Z,7.83
2023-05-08T23:06:22.225Z,7.83
2023-05-08T23:08:52.045Z,8.30
2023-05-08T23:11:21.332Z,8.63
2023-05-08T23:13:49.745Z,7.80
2023-05-08T23:16:18.201Z,8.47
2023-05-08T23:18:46.790Z,7.70
2023-05-08T23:21:15.195Z,7.90
2023-05-08T23:23:43.700Z,8.07
2023-05-08T23:26:13.493Z,8.50
2023-05-08T23:28:41.898Z,7.77
2023-05-08T23:31:10.310Z,7.50
2023-05-08T23:33:38.715Z,7.57
2023-05-08T23:36:08.056Z,7.30
2023-05-08T23:38:36.479Z,8.13
2023-05-08T23:41:04.840Z,7.90
2023-05-08T23:43:34.632Z,8.57
2023-05-08T23:46:03.295Z,8.30
2023-05-08T23:48:31.717Z,7.43
2023-05-08T23:51:00.155Z,8.77
2023-05-08T23:53:28.528Z,8.20
2023-05-08T23:55:57.786Z,7.70
2023-05-08T23:58:26.293Z,7.87
